Time;durP1;ratioP1;P1;durP2;ratioP2;P2;SDS_P1;SDS_P2;PMS_P1;PMS_P2;Temp;Humidity;BMP_temperature;BMP_pressure;BME280_temperature;BME280_humidity;BME280_pressure;Samples;Min_cycle;Max_cycle;Signal;HPM_P1;HPM_P2
2021/03/13 00:01:13;;;;;;;23.10;14.43;;;6.50;99.90;;;5.88;91.59;100232.91;5007166;28;20042;-46
2021/03/13 00:03:39;;;;;;;23.52;13.68;;;6.60;99.90;;;5.91;91.75;100239.66;5007892;28;20037;-49
2021/03/13 00:06:07;;;;;;;20.95;13.35;;;6.50;99.90;;;5.93;91.75;100242.94;5008441;28;20422;-49
2021/03/13 00:08:37;;;;;;;19.17;12.68;;;6.50;99.90;;;5.88;91.83;100245.03;5008558;28;20085;-47
2021/03/13 00:11:08;;;;;;;22.40;13.60;;;6.50;99.90;;;5.86;91.41;100252.09;5007279;28;20501;-47
2021/03/13 00:13:35;;;;;;;21.92;13.77;;;6.50;99.90;;;5.75;91.53;100262.44;5008926;28;20042;-48
2021/03/13 00:16:01;;;;;;;19.60;12.95;;;6.40;99.90;;;5.84;91.81;100259.94;5004885;28;20030;-48
2021/03/13 00:18:27;;;;;;;18.20;13.02;;;6.40;99.90;;;5.91;91.33;100265.50;5008420;28;20037;-50
2021/03/13 00:20:54;;;;;;;20.60;13.27;;;6.50;99.90;;;5.87;90.63;100259.72;5007268;28;20037;-47
2021/03/13 00:23:19;;;;;;;20.20;12.75;;;6.50;99.90;;;5.84;91.12;100264.31;5008454;28;20088;-49
2021/03/13 00:25:45;;;;;;;19.58;12.55;;;6.40;99.90;;;5.79;90.64;100276.75;5006860;28;20041;-47
2021/03/13 00:28:11;;;;;;;20.98;14.68;;;6.40;99.90;;;5.71;90.91;100276.53;5007224;28;21878;-49
2021/03/13 00:30:45;;;;;;;18.73;12.43;;;6.30;99.90;;;5.70;91.66;100283.47;5006851;28;20394;-50
2021/03/13 00:33:21;;;;;;;18.48;12.93;;;6.20;99.90;;;5.72;91.17;100280.75;5008493;28;20030;-49
2021/03/13 00:35:50;;;;;;;18.52;13.15;;;6.30;99.90;;;5.70;91.08;100278.28;5007310;28;20445;-50
2021/03/13 00:38:17;;;;;;;18.15;12.55;;;6.30;99.90;;;5.60;91.17;100273.03;5008363;28;20038;-47
2021/03/13 00:40:45;;;;;;;18.45;13.45;;;6.20;99.90;;;5.57;91.18;100268.09;5006746;28;20030;-46
2021/03/13 00:43:15;;;;;;;17.70;12.35;;;6.20;99.90;;;5.58;91.59;100269.72;5008454;28;20038;-47
2021/03/13 00:45:42;;;;;;;20.90;12.15;;;6.20;99.90;;;5.61;91.38;100272.09;5006415;28;20037;-49
2021/03/13 00:48:09;;;;;;;19.35;13.35;;;6.20;99.90;;;5.74;91.18;100273.72;5012112;28;20038;-49
2021/03/13 00:50:38;;;;;;;17.67;12.80;;;6.30;99.90;;;5.73;90.90;100274.66;5010759;28;20400;-50
2021/03/13 00:53:04;;;;;;;18.50;12.57;;;6.30;99.90;;;5.58;90.97;100274.91;5011782;28;20045;-50
2021/03/13 00:55:32;;;;;;;19.75;11.98;;;6.20;99.90;;;5.53;91.37;100276.19;5008375;28;20551;-49
2021/03/13 00:57:58;;;;;;;19.85;13.02;;;6.20;99.90;;;5.54;91.75;100270.91;5008920;28;20118;-48
2021/03/13 01:00:26;;;;;;;16.40;11.05;;;6.10;99.90;;;5.62;91.36;100267.75;5010691;28;20112;-48
2021/03/13 01:02:53;;;;;;;17.25;11.95;;;6.20;99.90;;;5.51;90.80;100265.97;5012242;28;20049;-48
2021/03/13 01:05:19;;;;;;;15.07;12.27;;;6.10;99.90;;;5.30;91.12;100262.41;5010662;28;20490;-49
2021/03/13 01:07:45;;;;;;;19.15;12.38;;;6.00;99.90;;;5.17;91.33;100259.97;5012151;28;20030;-44
2021/03/13 01:10:22;;;;;;;19.10;13.55;;;5.90;99.90;;;5.14;91.61;100262.78;5010095;28;20042;-47
2021/03/13 01:12:48;;;;;;;19.58;11.13;;;5.80;99.90;;;5.16;92.28;100252.31;5011497;28;20038;-52
2021/03/13 01:15:21;;;;;;;20.27;12.23;;;5.80;99.90;;;5.45;92.12;100253.50;5010655;28;20087;-50
2021/03/13 01:17:47;;;;;;;19.08;11.20;;;5.90;99.90;;;5.54;91.51;100262.34;5010101;28;20033;-49
2021/03/13 01:20:15;;;;;;;17.33;11.60;;;6.00;99.90;;;5.64;90.77;100260.69;5010519;28;20116;-51
2021/03/13 01:22:42;;;;;;;20.42;11.90;;;6.10;99.90;;;5.59;90.40;100258.47;5011170;28;20320;-51
2021/03/13 01:25:11;;;;;;;19.23;11.07;;;6.20;99.90;;;5.52;91.02;100259.84;5009584;28;20143;-52
2021/03/13 01:27:37;;;;;;;16.48;9.90;;;6.10;99.90;;;5.71;90.65;100263.59;5011276;28;20041;-49
2021/03/13 01:30:13;;;;;;;16.85;10.32;;;6.20;99.90;;;5.79;90.26;100266.41;5009559;28;20390;-51
2021/03/13 01:32:39;;;;;;;14.75;10.82;;;6.30;99.90;;;5.50;90.05;100272.06;5010945;28;20042;-49
2021/03/13 01:35:07;;;;;;;16.50;10.82;;;6.20;99.90;;;5.44;91.26;100272.53;5008257;28;20050;-51
2021/03/13 01:37:33;;;;;;;18.77;11.32;;;6.10;99.90;;;5.36;91.60;100274.88;5008462;28;20120;-49
2021/03/13 01:39:59;;;;;;;17.63;12.07;;;6.00;99.90;;;5.38;91.67;100278.16;5011310;28;20124;-48
2021/03/13 01:42:25;;;;;;;16.70;11.07;;;6.00;99.90;;;5.29;91.36;100284.03;5010329;28;20114;-50
2021/03/13 01:44:51;;;;;;;17.00;11.45;;;5.90;99.90;;;5.16;91.12;100303.97;5010097;28;20041;-46
2021/03/13 01:47:29;;;;;;;20.55;13.00;;;5.80;99.90;;;5.00;91.82;100304.28;5010218;28;20125;-45
2021/03/13 01:49:57;;;;;;;18.73;13.05;;;5.70;99.90;;;5.03;92.31;100306.63;5010053;28;20516;-49
2021/03/13 01:52:23;;;;;;;16.38;11.98;;;5.70;99.90;;;5.06;92.25;100306.41;4993007;28;20121;-45
2021/03/13 01:54:49;;;;;;;17.33;11.38;;;5.70;99.90;;;5.09;92.05;100303.59;5009920;28;20065;-50
2021/03/13 01:57:17;;;;;;;21.65;12.00;;;5.70;99.90;;;5.00;91.88;100305.09;5009875;28;20045;-48
2021/03/13 01:59:45;;;;;;;18.98;12.02;;;5.60;99.90;;;4.89;91.85;100297.31;5010727;28;20038;-47
2021/03/13 02:02:13;;;;;;;19.63;11.52;;;5.60;99.90;;;4.82;91.83;100311.59;5008772;28;20413;-46
2021/03/13 02:04:41;;;;;;;16.92;10.82;;;5.50;99.90;;;4.82;92.31;100311.59;5010853;28;20041;-48
2021/03/13 02:07:16;;;;;;;19.23;12.25;;;5.40;99.90;;;4.77;92.50;100312.88;5008870;28;20560;-46
2021/03/13 02:10:37;;;;;;;17.15;11.10;;;5.40;99.90;;;4.84;92.85;100325.22;5010369;28;20391;-48
2021/03/13 02:13:33;;;;;;;16.52;10.45;;;5.40;99.90;;;4.82;92.36;100327.09;4987116;28;20054;-47
2021/03/13 02:16:28;;;;;;;17.80;11.23;;;5.40;99.90;;;4.82;92.93;100332.25;4999084;28;20121;-48
2021/03/13 02:19:31;;;;;;;17.45;11.30;;;5.40;99.90;;;4.92;92.64;100325.50;5010246;28;20041;-48
2021/03/13 02:22:03;;;;;;;14.30;8.95;;;5.50;99.90;;;5.38;91.71;100311.75;5001885;28;20042;-50
2021/03/13 02:24:29;;;;;;;11.68;8.68;;;5.70;99.90;;;5.31;90.71;100316.56;4992601;28;20049;-48
2021/03/13 02:27:22;;;;;;;13.55;9.35;;;5.80;99.90;;;5.19;91.71;100314.09;5009155;28;20038;-50
2021/03/13 02:30:03;;;;;;;11.93;7.95;;;5.70;99.90;;;5.64;89.14;100315.78;4993180;28;20033;-47
2021/03/13 02:32:55;;;;;;;11.77;7.55;;;6.00;99.90;;;5.73;89.08;100310.84;5009691;28;20120;-49
2021/03/13 02:35:28;;;;;;;9.32;7.00;;;6.20;99.90;;;6.15;86.96;100314.47;4991497;28;20046;-51
2021/03/13 02:38:05;;;;;;;12.55;8.52;;;6.40;99.90;;;5.97;86.64;100311.59;5009250;28;20394;-48
2021/03/13 02:40:34;;;;;;;14.48;9.65;;;6.60;99.90;;;5.51;88.85;100317.66;4992383;28;20034;-46
2021/03/13 02:43:05;;;;;;;15.15;9.88;;;6.20;99.90;;;5.28;89.70;100318.53;5009868;28;20452;-48
2021/03/13 02:45:36;;;;;;;5.28;2.97;;;6.00;99.90;;;5.86;87.87;100312.38;4991420;28;20079;-49
2021/03/13 02:48:07;;;;;;;14.15;8.27;;;6.10;99.90;;;5.78;86.87;100306.97;4988883;28;20121;-51
2021/03/13 02:50:39;;;;;;;11.68;7.88;;;6.30;99.90;;;5.38;88.58;100311.75;4993345;28;20370;-47
2021/03/13 02:53:05;;;;;;;12.00;8.40;;;6.10;99.90;;;5.22;89.12;100313.81;4987832;28;20481;-48
2021/03/13 02:55:33;;;;;;;13.27;7.55;;;6.00;99.90;;;5.07;90.36;100318.38;4974904;28;20036;-47
2021/03/13 02:58:02;;;;;;;12.80;8.05;;;5.70;99.90;;;5.05;90.28;100317.69;4992208;28;20037;-47
2021/03/13 03:00:34;;;;;;;11.90;7.95;;;5.70;99.90;;;4.90;90.46;100318.78;4990941;28;20092;-48
2021/03/13 03:03:02;;;;;;;12.68;7.63;;;5.60;99.90;;;4.77;90.83;100318.84;4990224;28;20041;-48
2021/03/13 03:05:29;;;;;;;11.23;8.55;;;5.50;99.90;;;4.76;91.35;100312.03;4974924;28;20037;-48
2021/03/13 03:08:00;;;;;;;11.20;7.43;;;5.40;99.90;;;4.74;91.40;100318.25;4990701;28;20516;-47
2021/03/13 03:10:31;;;;;;;11.45;7.38;;;5.40;99.90;;;4.75;91.29;100325.06;5008314;28;20180;-48
2021/03/13 03:13:00;;;;;;;11.15;7.43;;;5.40;99.90;;;4.60;91.11;100332.16;5009477;28;20042;-50
2021/03/13 03:15:31;;;;;;;13.18;8.25;;;5.30;99.90;;;4.48;91.70;100341.59;4990072;28;20092;-48
2021/03/13 03:18:22;;;;;;;11.68;8.63;;;5.20;99.90;;;4.41;91.66;100331.81;4991790;28;20034;-48
2021/03/13 03:20:49;;;;;;;14.23;9.15;;;5.10;99.90;;;4.30;92.30;100325.66;5008306;28;20038;-54
2021/03/13 03:23:15;;;;;;;12.60;8.82;;;5.00;99.90;;;4.25;92.47;100335.47;5008127;28;20149;-49
2021/03/13 03:25:41;;;;;;;10.30;8.15;;;4.90;99.90;;;4.40;92.22;100335.31;5008459;28;20030;-48
2021/03/13 03:28:07;;;;;;;12.35;7.57;;;4.90;99.90;;;4.45;91.98;100328.09;5009330;28;20137;-50
2021/03/13 03:30:34;;;;;;;8.93;5.90;;;5.00;99.90;;;4.45;92.54;100322.94;4990444;28;20129;-51
2021/03/13 03:33:02;;;;;;;10.30;7.28;;;5.00;99.90;;;4.57;91.57;100327.22;5009092;28;20037;-52
2021/03/13 03:35:28;;;;;;;7.80;4.90;;;5.10;99.90;;;4.76;91.22;100324.13;5008238;28;20037;-48
2021/03/13 03:37:58;;;;;;;11.68;6.85;;;5.20;99.90;;;4.71;90.32;100331.41;5007883;28;20042;-50
2021/03/13 03:40:26;;;;;;;12.85;5.25;;;5.30;99.90;;;4.63;90.98;100342.28;5008009;28;20575;-54
2021/03/13 03:43:37;;;;;;;11.05;7.32;;;5.20;99.90;;;4.60;90.64;100343.31;5007737;28;20437;-49
2021/03/13 03:46:04;;;;;;;10.15;6.95;;;5.20;99.90;;;4.50;91.10;100331.16;5007858;28;20412;-47
2021/03/13 03:48:33;;;;;;;11.23;6.80;;;5.10;99.90;;;4.55;91.06;100344.56;5008573;28;20128;-47
2021/03/13 03:51:01;;;;;;;8.85;6.50;;;5.10;99.90;;;4.39;91.11;100341.41;5063468;23;20055;-47
2021/03/13 03:53:36;;;;;;;11.38;7.72;;;5.10;99.90;;;4.23;91.58;100346.84;4970855;28;20072;-47
2021/03/13 03:56:04;;;;;;;8.50;6.68;;;4.90;99.90;;;4.17;91.72;100342.09;4989171;28;20118;-48
2021/03/13 03:58:46;;;;;;;11.32;6.55;;;4.80;99.90;;;4.15;91.99;100344.78;4988072;28;20405;-52
2021/03/13 04:01:15;;;;;;;9.05;6.90;;;4.80;99.90;;;4.15;92.23;100347.38;4967940;28;20043;-48
2021/03/13 04:03:55;;;;;;;9.73;6.60;;;4.80;99.90;;;4.20;92.16;100359.94;4987148;28;20042;-48
2021/03/13 04:06:22;;;;;;;10.82;7.28;;;4.80;99.90;;;4.30;91.66;100350.63;4989002;28;20045;-49
2021/03/13 04:08:53;;;;;;;8.65;6.30;;;4.90;99.90;;;4.33;91.50;100350.41;4970380;28;20085;-49
2021/03/13 04:11:22;;;;;;;10.45;7.30;;;4.90;99.90;;;4.30;91.53;100345.44;4988831;28;20038;-48
2021/03/13 04:13:52;;;;;;;11.15;7.93;;;4.90;99.90;;;4.25;91.95;100338.03;4988147;28;20061;-50
2021/03/13 04:16:19;;;;;;;9.52;6.95;;;4.90;99.90;;;4.30;92.28;100345.44;4987066;28;20057;-49
2021/03/13 04:18:45;;;;;;;10.30;6.97;;;4.90;99.90;;;4.39;91.51;100341.41;4970669;28;20042;-48
2021/03/13 04:21:13;;;;;;;9.02;7.40;;;5.00;99.90;;;4.31;91.54;100339.38;4989622;28;20034;-47
2021/03/13 04:23:47;;;;;;;12.38;7.80;;;5.00;99.90;;;4.24;91.66;100341.59;4974293;28;20039;-49
2021/03/13 04:26:18;;;;;;;10.68;7.57;;;4.90;99.90;;;4.16;92.07;100343.88;4993068;28;20034;-51
2021/03/13 04:28:49;;;;;;;9.55;7.18;;;4.80;99.90;;;4.07;92.22;100346.25;4992013;28;20042;-48
2021/03/13 04:31:20;;;;;;;8.52;6.80;;;4.80;99.90;;;4.02;92.79;100346.56;4989460;28;20224;-49
2021/03/13 04:33:48;;;;;;;12.18;7.32;;;4.70;99.90;;;4.01;93.08;100347.50;4974572;28;20559;-48
2021/03/13 04:36:14;;;;;;;11.52;6.18;;;4.60;99.90;;;3.98;92.93;100355.44;4974145;28;20315;-50
2021/03/13 04:38:40;;;;;;;10.73;7.90;;;4.60;99.90;;;3.90;92.63;100365.44;4973906;28;20470;-50
2021/03/13 04:41:08;;;;;;;8.70;6.63;;;4.60;99.90;;;3.85;92.96;100368.31;4991719;28;20046;-50
2021/03/13 04:43:35;;;;;;;9.13;6.40;;;4.50;99.90;;;3.87;93.19;100369.03;4989445;28;20030;-48
2021/03/13 04:46:02;;;;;;;8.93;6.78;;;4.50;99.90;;;3.91;92.95;100364.50;4974244;28;20038;-50
2021/03/13 04:48:32;;;;;;;10.80;6.75;;;4.50;99.90;;;3.90;92.90;100363.69;4992400;28;20042;-50
2021/03/13 04:51:01;;;;;;;12.00;7.22;;;4.50;99.90;;;3.87;93.21;100378.53;4991440;28;20078;-47
2021/03/13 04:53:28;;;;;;;10.27;7.13;;;4.50;99.90;;;3.90;93.01;100375.75;4988381;28;20100;-48
2021/03/13 04:55:54;;;;;;;9.98;7.00;;;4.60;99.90;;;3.99;93.01;100372.56;4991497;28;20202;-46
2021/03/13 04:58:20;;;;;;;11.75;7.03;;;4.60;99.90;;;4.11;92.55;100379.44;4992263;28;20034;-51
2021/03/13 05:00:47;;;;;;;10.70;7.15;;;4.70;99.90;;;4.18;92.46;100379.84;4991214;28;20054;-48
2021/03/13 05:03:14;;;;;;;11.43;7.10;;;4.70;99.90;;;4.26;92.44;100380.94;4991010;28;21308;-47
2021/03/13 05:05:41;;;;;;;9.98;6.50;;;4.80;99.90;;;4.15;91.69;100386.06;4992490;28;20073;-52
2021/03/13 05:08:07;;;;;;;8.02;6.47;;;4.80;99.90;;;4.08;92.16;100382.25;4990871;28;20030;-48
2021/03/13 05:10:34;;;;;;;12.57;7.38;;;4.70;99.90;;;4.11;92.46;100384.59;4992036;28;20037;-51
2021/03/13 05:13:00;;;;;;;11.02;7.03;;;4.70;99.90;;;4.12;92.36;100385.44;4990510;28;20039;-47
2021/03/13 05:15:26;;;;;;;11.57;7.82;;;4.70;99.90;;;4.19;92.03;100397.81;4970376;28;20038;-49
2021/03/13 05:17:52;;;;;;;11.43;6.70;;;4.70;99.90;;;4.13;92.10;100395.66;4991295;28;20402;-50
2021/03/13 05:20:18;;;;;;;16.88;10.55;;;4.70;99.90;;;4.20;92.36;100394.28;4990668;28;20034;-49
2021/03/13 05:22:48;;;;;;;12.55;7.03;;;4.80;99.90;;;4.20;92.12;100396.88;4991296;28;20105;-50
2021/03/13 05:25:15;;;;;;;10.98;6.78;;;4.80;99.90;;;4.40;92.00;100402.38;4988871;28;20038;-50
2021/03/13 05:27:41;;;;;;;11.77;7.47;;;4.90;99.90;;;4.52;91.64;100404.13;4991698;28;20461;-47
2021/03/13 05:30:09;;;;;;;12.07;7.03;;;5.00;99.90;;;4.61;91.37;100403.47;4989666;28;20038;-48
2021/03/13 05:32:37;;;;;;;11.50;7.53;;;5.20;99.90;;;4.63;91.05;100419.69;4989871;28;20080;-47
2021/03/13 05:35:06;;;;;;;10.23;6.93;;;5.20;99.90;;;4.75;91.02;100412.81;4990694;28;20073;-52
2021/03/13 05:37:32;;;;;;;10.38;7.38;;;5.30;99.90;;;4.76;90.55;100417.03;4991452;28;20100;-50
2021/03/13 05:39:58;;;;;;;9.52;7.10;;;5.40;99.90;;;4.78;91.02;100422.91;4987577;28;20190;-51
2021/03/13 05:42:24;;;;;;;10.40;7.22;;;5.40;99.90;;;4.83;90.81;100410.50;4991372;28;20061;-52
2021/03/13 05:44:53;;;;;;;11.48;7.18;;;5.50;99.90;;;4.84;90.77;100413.00;4990241;28;20046;-50
2021/03/13 05:47:20;;;;;;;21.20;10.38;;;5.50;99.90;;;4.90;90.81;100419.47;4973084;28;20053;-51
2021/03/13 05:50:12;;;;;;;10.18;7.57;;;5.50;99.90;;;4.97;90.37;100413.78;4990247;28;20343;-50
2021/03/13 05:52:39;;;;;;;16.45;9.07;;;5.60;99.90;;;4.98;90.58;100412.84;4991211;28;20393;-50
2021/03/13 05:55:08;;;;;;;12.02;7.50;;;5.60;99.90;;;5.22;89.93;100410.22;4987515;28;20026;-51
2021/03/13 05:57:35;;;;;;;9.80;7.30;;;5.70;99.90;;;5.58;89.03;100404.13;4990874;28;20073;-49
2021/03/13 06:00:05;;;;;;;14.70;8.80;;;6.00;99.90;;;5.72;88.37;100416.00;4989200;28;20203;-49
2021/03/13 06:02:32;;;;;;;17.00;7.65;;;6.20;99.90;;;5.77;87.76;100415.66;4987438;28;20046;-44
2021/03/13 06:04:58;;;;;;;16.80;7.45;;;6.30;99.90;;;5.88;87.43;100413.09;4990274;28;20049;-48
2021/03/13 06:07:26;;;;;;;9.00;5.85;;;6.40;99.90;;;6.15;86.61;100413.59;4989960;28;20038;-45
2021/03/13 06:09:57;;;;;;;12.10;7.03;;;6.70;99.90;;;6.33;85.97;100414.78;4990044;28;20038;-47
2021/03/13 06:12:25;;;;;;;28.80;15.95;;;6.80;99.90;;;6.43;85.52;100417.50;4987371;28;20046;-47
2021/03/13 06:14:54;;;;;;;13.90;8.55;;;7.00;99.90;;;6.48;85.12;100420.53;4971876;28;20026;-53
2021/03/13 06:17:22;;;;;;;10.18;7.43;;;7.10;99.90;;;6.47;85.44;100429.25;4989588;28;20375;-47
2021/03/13 06:19:57;;;;;;;7.35;5.35;;;7.10;99.90;;;6.64;85.59;100436.50;4989712;28;20030;-51
2021/03/13 06:22:43;;;;;;;7.57;5.47;;;7.30;99.90;;;6.91;83.48;100441.28;4990510;28;20409;-48
2021/03/13 06:25:19;;;;;;;12.13;4.43;;;7.50;99.90;;;7.16;82.28;100431.53;4986653;28;20426;-47
2021/03/13 06:28:03;;;;;;;9.77;5.65;;;7.80;99.90;;;7.42;81.73;100432.03;4990730;28;20357;-46
2021/03/13 06:30:39;;;;;;;10.07;6.15;;;8.00;99.90;;;7.69;79.58;100423.75;4986764;28;20110;-50
2021/03/13 06:33:27;;;;;;;;;;;8.30;99.90;;;7.87;78.47;100430.84;4971580;28;20047;-47
2021/03/13 06:36:08;;;;;;;8.57;4.97;;;8.60;99.90;;;7.74;80.28;100432.81;4988430;28;19922;-51
2021/03/13 06:38:37;;;;;;;9.23;4.60;;;8.60;99.90;;;7.91;80.59;100434.81;4990434;28;20042;-50
2021/03/13 06:41:23;;;;;;;7.13;4.15;;;8.60;99.90;;;8.01;78.40;100437.47;4989141;28;20080;-47
2021/03/13 06:43:56;;;;;;;5.57;4.73;;;8.70;99.90;;;8.23;79.04;100442.47;4972054;28;20372;-53
2021/03/13 06:46:29;;;;;;;6.53;4.40;;;8.90;99.90;;;8.44;78.29;100449.44;4978833;28;20358;-53
2021/03/13 06:48:57;;;;;;;8.07;5.32;;;9.10;99.90;;;8.55;78.72;100455.34;4989159;28;20075;-49
2021/03/13 06:51:32;;;;;;;6.63;5.00;;;9.20;99.90;;;8.62;78.38;100456.47;4987510;28;20042;-51
2021/03/13 06:54:02;;;;;;;6.45;3.20;;;9.40;99.90;;;8.89;76.37;100455.03;4988940;28;20046;-54
2021/03/13 06:56:39;;;;;;;5.47;3.70;;;9.70;99.90;;;9.13;76.41;100459.84;4989580;28;20201;-51
2021/03/13 06:59:35;;;;;;;5.10;3.63;;;10.00;99.90;;;9.37;73.14;100467.25;4989075;28;20034;-48
2021/03/13 07:02:10;;;;;;;5.40;4.03;;;10.10;99.90;;;9.31;75.02;100471.22;4986130;28;20104;-48
2021/03/13 07:04:40;;;;;;;3.87;3.47;;;10.00;99.90;;;9.50;74.85;100478.19;4990152;28;20077;-48
2021/03/13 07:07:07;;;;;;;5.55;4.03;;;10.10;99.90;;;9.78;74.01;100479.13;4988623;28;20061;-46
2021/03/13 07:09:56;;;;;;;6.45;4.20;;;10.40;99.90;;;9.89;71.50;100474.59;4987306;28;20038;-47
2021/03/13 07:12:41;;;;;;;5.97;3.92;;;10.50;99.90;;;9.94;71.75;100481.97;4988579;28;20047;-46
2021/03/13 07:15:24;;;;;;;5.13;3.92;;;10.60;99.90;;;10.13;72.45;100471.53;4989666;28;20082;-49
2021/03/13 07:17:59;;;;;;;6.18;3.95;;;10.80;99.90;;;10.26;71.81;100476.47;4986968;28;20066;-48
2021/03/13 07:20:34;;;;;;;7.30;4.25;;;10.90;99.90;;;10.35;71.35;100472.19;4987199;28;20038;-48
2021/03/13 07:23:03;;;;;;;5.47;4.07;;;11.00;99.90;;;10.45;71.18;100472.94;4988088;28;20077;-51
2021/03/13 07:25:30;;;;;;;7.13;5.03;;;11.10;99.90;;;10.58;71.72;100457.81;4987164;28;21121;-48
2021/03/13 07:28:02;;;;;;;5.43;4.65;;;11.20;99.90;;;10.66;71.35;100444.88;4989320;28;20065;-48
2021/03/13 07:30:30;;;;;;;7.13;4.47;;;11.30;99.90;;;10.78;71.23;100440.28;4987993;28;20077;-49
2021/03/13 07:33:04;;;;;;;3.08;2.58;;;11.40;99.90;;;10.77;70.41;100449.91;4989020;28;20122;-55
2021/03/13 07:35:38;;;;;;;4.25;2.35;;;11.40;99.90;;;10.88;68.49;100452.28;4971064;28;20042;-48
2021/03/13 07:38:07;;;;;;;4.28;2.50;;;11.50;99.90;;;11.08;69.08;100459.97;4971981;28;20514;-52
2021/03/13 07:40:39;;;;;;;2.83;1.55;;;11.60;99.90;;;11.32;67.80;100475.06;4968545;28;20374;-47
2021/03/13 07:43:09;;;;;;;5.18;1.85;;;11.80;99.90;;;11.60;66.46;100479.22;4972123;28;20038;-45
2021/03/13 07:45:36;;;;;;;5.07;1.52;;;12.00;99.90;;;11.59;65.61;100472.34;4969673;28;20038;-47
2021/03/13 07:48:03;;;;;;;2.60;0.88;;;12.20;99.90;;;11.28;65.68;100484.97;4984487;28;20044;-49
2021/03/13 07:50:29;;;;;;;2.05;1.15;;;12.10;99.90;;;11.22;66.16;100485.56;4987932;28;20030;-49
2021/03/13 07:52:55;;;;;;;5.97;1.45;;;11.90;99.90;;;11.30;66.14;100501.28;4975986;28;20042;-49
2021/03/13 07:55:24;;;;;;;2.05;1.05;;;12.00;99.90;;;11.25;65.17;100498.31;4970943;28;20515;-49
2021/03/13 07:57:52;;;;;;;2.33;1.20;;;12.10;99.90;;;11.22;65.42;100501.22;4970621;28;20038;-48
2021/03/13 08:00:38;;;;;;;0.98;0.55;;;12.00;99.90;;;11.18;64.43;100502.47;4986289;28;20145;-48
2021/03/13 08:03:24;;;;;;;2.40;0.68;;;12.00;98.30;;;11.11;65.16;100507.44;4973046;28;20034;-48
2021/03/13 08:06:12;;;;;;;2.33;0.60;;;11.90;99.90;;;11.16;63.96;100512.22;4971346;28;20041;-48
2021/03/13 08:08:45;;;;;;;1.20;0.55;;;11.80;99.90;;;11.29;63.39;100517.91;4988258;28;20375;-46
2021/03/13 08:11:21;;;;;;;1.63;0.70;;;11.90;99.90;;;11.34;63.67;100533.94;4984564;28;20109;-47
2021/03/13 08:13:51;;;;;;;2.38;1.70;;;11.90;99.90;;;11.12;64.04;100540.38;4988745;28;20428;-51
2021/03/13 08:16:35;;;;;;;2.10;1.40;;;11.80;99.90;;;10.84;62.56;100538.75;4988936;28;20074;-50
2021/03/13 08:19:02;;;;;;;2.67;1.50;;;11.60;99.90;;;10.80;65.49;100551.25;4988729;28;20522;-50
2021/03/13 08:21:30;;;;;;;3.92;1.38;;;11.40;99.90;;;10.77;65.38;100537.69;4988921;28;20477;-48
2021/03/13 08:23:59;;;;;;;2.97;1.38;;;11.40;99.90;;;10.68;65.51;100543.75;4988745;28;20141;-48
2021/03/13 08:26:34;;;;;;;3.33;1.42;;;11.40;99.90;;;10.72;64.87;100545.09;4971526;28;20038;-53
2021/03/13 08:29:04;;;;;;;2.25;1.33;;;11.30;99.90;;;10.66;65.62;100543.06;4989029;28;20442;-50
2021/03/13 08:31:39;;;;;;;5.55;1.52;;;11.30;99.90;;;10.65;64.27;100539.66;4988440;28;20393;-46
2021/03/13 08:34:05;;;;;;;2.65;1.48;;;11.30;99.90;;;10.87;64.40;100536.66;4987987;28;20044;-47
2021/03/13 08:36:50;;;;;;;2.38;1.98;;;11.40;99.90;;;10.93;63.40;100538.69;4988591;28;20482;-49
2021/03/13 08:39:24;;;;;;;4.68;2.65;;;11.50;99.90;;;11.28;64.12;100537.13;4983067;28;20299;-47
2021/03/13 08:41:57;;;;;;;3.63;2.00;;;11.70;99.90;;;11.69;60.98;100530.50;4988542;28;20097;-52
2021/03/13 08:44:26;;;;;;;3.78;2.47;;;11.90;99.90;;;11.92;61.77;100531.69;5025480;23;20053;-51
2021/03/13 08:47:05;;;;;;;2.45;1.55;;;12.30;99.90;;;12.00;60.53;100527.50;5023412;28;20447;-47
2021/03/13 08:49:31;;;;;;;4.97;2.60;;;12.50;97.90;;;11.87;61.33;100531.31;5026337;28;20091;-47
2021/03/13 08:52:03;;;;;;;2.80;1.70;;;12.50;97.00;;;11.69;59.89;100540.13;5026630;28;20135;-48
2021/03/13 08:54:41;;;;;;;3.47;1.80;;;12.40;97.00;;;11.84;60.75;100523.78;5025136;28;20053;-50
2021/03/13 08:57:12;;;;;;;2.97;1.83;;;12.40;97.70;;;12.25;59.47;100522.31;5027743;28;20030;-50
2021/03/13 08:59:41;;;;;;;1.50;0.80;;;12.80;97.60;;;12.24;59.75;100523.28;5027973;28;20044;-50
2021/03/13 09:02:14;;;;;;;4.88;0.85;;;12.90;96.00;;;12.46;57.75;100519.31;5005905;28;20053;-52
2021/03/13 09:05:02;;;;;;;2.47;1.23;;;13.10;95.20;;;12.82;58.50;100524.38;5020399;28;20076;-52
2021/03/13 09:07:28;;;;;;;2.80;1.25;;;13.30;94.10;;;12.75;58.77;100518.97;5028322;28;20034;-52
2021/03/13 09:09:57;;;;;;;2.22;1.13;;;13.40;93.40;;;12.71;58.68;100522.06;5030365;28;20045;-52
2021/03/13 09:12:24;;;;;;;2.17;1.30;;;13.40;93.80;;;12.52;58.70;100520.47;5031001;28;20043;-48
2021/03/13 09:14:57;;;;;;;3.47;1.30;;;13.20;93.10;;;12.53;58.45;100516.91;5030044;28;20045;-49
2021/03/13 09:17:33;;;;;;;1.40;1.00;;;13.10;93.60;;;12.68;57.43;100517.97;5028993;28;20164;-50
2021/03/13 09:20:16;;;;;;;4.43;0.95;;;13.30;93.30;;;12.70;58.10;100507.34;5029046;28;20087;-48
2021/03/13 09:22:46;;;;;;;2.53;1.02;;;13.30;93.10;;;12.81;58.48;100505.25;5029976;28;20523;-50
2021/03/13 09:25:21;;;;;;;1.35;0.70;;;13.30;93.50;;;12.77;57.12;100501.31;5030004;28;20037;-56
2021/03/13 09:27:51;;;;;;;1.40;0.93;;;13.40;91.80;;;12.98;58.23;100500.91;5029477;28;20057;-49
2021/03/13 09:30:21;;;;;;;2.08;1.08;;;13.40;92.70;;;13.74;56.53;100497.25;5011424;28;20065;-53
2021/03/13 09:32:50;;;;;;;2.35;1.42;;;13.90;92.90;;;14.20;55.31;100496.53;5030180;28;20049;-47
2021/03/13 09:35:18;;;;;;;3.33;0.93;;;14.40;91.30;;;14.06;54.96;100484.13;5029402;28;20028;-50
2021/03/13 09:37:45;;;;;;;2.40;0.80;;;14.50;88.50;;;14.25;54.41;100480.31;5029800;28;20048;-47
2021/03/13 09:40:16;;;;;;;1.67;0.80;;;14.70;86.60;;;14.36;53.43;100484.38;5028803;28;20038;-51
2021/03/13 09:42:45;;;;;;;2.15;0.85;;;15.00;83.00;;;14.34;53.44;100479.31;5029010;28;20523;-53
2021/03/13 09:45:20;;;;;;;1.35;0.80;;;15.00;83.10;;;14.43;52.92;100480.13;5010513;28;20060;-51
2021/03/13 09:48:07;;;;;;;;;;;15.10;83.40;;;14.46;52.58;100479.81;5021712;28;20041;-50
2021/03/13 09:50:35;;;;;;;3.97;1.02;;;15.10;80.90;;;14.92;54.55;100481.56;5010850;28;20346;-49
2021/03/13 09:53:06;;;;;;;6.10;0.88;;;15.40;86.00;;;15.39;53.57;100483.22;5029476;28;20060;-49
2021/03/13 09:55:32;;;;;;;3.85;0.77;;;15.80;84.80;;;15.77;53.17;100475.41;5026508;28;20037;-49
2021/03/13 09:58:01;;;;;;;3.45;0.80;;;16.20;84.80;;;16.22;51.75;100477.09;5030369;28;20029;-45
2021/03/13 10:00:28;;;;;;;4.30;0.90;;;16.50;83.20;;;16.18;52.05;100471.38;5030335;28;20034;-46
2021/03/13 10:03:00;;;;;;;4.85;0.90;;;16.60;82.50;;;15.75;52.96;100472.13;5030280;28;20396;-44
2021/03/13 10:05:31;;;;;;;2.40;0.77;;;16.50;81.90;;;15.56;53.51;100474.28;5030005;28;20030;-49
2021/03/13 10:08:05;;;;;;;3.63;0.63;;;16.30;82.70;;;15.35;54.38;100468.00;5030334;28;20112;-47
2021/03/13 10:10:31;;;;;;;1.45;0.68;;;16.20;83.30;;;15.04;55.52;100462.81;5030402;28;20047;-47
2021/03/13 10:13:06;;;;;;;3.85;0.88;;;15.90;84.20;;;14.83;55.17;100463.41;5029902;28;20529;-48
2021/03/13 10:15:37;;;;;;;5.50;0.70;;;15.70;85.00;;;14.78;55.73;100457.84;5030092;28;20560;-47
2021/03/13 10:18:14;;;;;;;2.08;0.85;;;15.50;86.20;;;15.04;54.54;100452.31;5029596;28;20061;-50
2021/03/13 10:20:43;;;;;;;3.08;0.70;;;15.50;86.80;;;15.35;53.89;100450.44;5029946;28;20041;-48
2021/03/13 10:23:37;;;;;;;2.92;0.95;;;15.90;83.80;;;15.73;50.92;100447.84;5029887;28;20112;-47
2021/03/13 10:26:12;;;;;;;4.35;0.68;;;16.10;80.60;;;16.07;51.84;100434.22;5027789;28;20046;-49
2021/03/13 10:28:47;;;;;;;4.85;0.82;;;16.50;81.40;;;15.87;51.72;100440.00;5029858;28;20068;-45
2021/03/13 10:31:19;;;;;;;4.10;0.80;;;16.50;80.60;;;15.67;52.94;100438.06;5029811;28;20072;-48
2021/03/13 10:33:45;;;;;;;3.28;0.85;;;16.40;80.10;;;15.44;53.91;100438.91;5029611;28;20051;-49
2021/03/13 10:36:14;;;;;;;3.92;0.90;;;16.20;80.90;;;15.59;53.78;100436.34;5030159;28;20068;-47